Florenville, Belgium
Current Conditions -  °F | °C
As of 1:50 PM on Saturday 25 Oct 2014 (Local Time) from ELLX Reporting Station
Broken Clouds Broken Clouds  
Wind Chill: 55°   Ceiling: 1300
Heat Index: 55°   Visibility: 6mi
Dew Point: 50°   Wind: 3mph
Humidity: 82%   Direction: NA
Pressure: 30.12"   Gusts: NA
Location:  49.7°N, 5.31°E
Report Text: ELLX 251150Z VRB03KT 9999 SCT010 BKN013 13/10 Q1020 NOSIG
Loading
Personal Weather Stations






























Interactive Weather Map
Tropical Storm Tracking
New forecast layout! Learn more

10-Day Weather Forecast

Advertisements
Track Severe Weather on mobile